createdAt,value
2018-10-04T00:00:59.667Z,101215.05
2018-10-04T00:02:02.246Z,101220.38
2018-10-04T00:03:05.190Z,101212.89
2018-10-04T00:04:07.850Z,101214.69
2018-10-04T00:05:10.596Z,101221.72
2018-10-04T00:06:13.158Z,101219.55
2018-10-04T00:07:15.722Z,101219.19
2018-10-04T00:08:18.334Z,101224.52
2018-10-04T00:09:20.914Z,101225.35
2018-10-04T00:10:23.482Z,101227.66
2018-10-04T00:11:26.034Z,101221.49
2018-10-04T00:12:28.614Z,101231.29
2018-10-04T00:13:31.174Z,101230.45
2018-10-04T00:14:33.746Z,101229.95
2018-10-04T00:15:36.363Z,101229.13
2018-10-04T00:16:38.929Z,101231.79
2018-10-04T00:17:41.504Z,101231.89
2018-10-04T00:18:44.158Z,101233.23
2018-10-04T00:19:46.714Z,101231.53
2018-10-04T00:20:49.286Z,101235.89
2018-10-04T00:21:51.879Z,101237.36
2018-10-04T00:22:54.435Z,101238.20
2018-10-04T00:23:57.038Z,101234.20
2018-10-04T00:24:59.610Z,101233.47
2018-10-04T00:26:02.183Z,101225.98
2018-10-04T00:27:04.858Z,101235.67
2018-10-04T00:28:07.451Z,101229.47
2018-10-04T00:29:10.094Z,101225.98
2018-10-04T00:30:12.673Z,101226.44
2018-10-04T00:31:15.230Z,101230.44
2018-10-04T00:32:17.829Z,101230.08
2018-10-04T00:33:20.400Z,101230.08
2018-10-04T00:34:22.990Z,101228.28
2018-10-04T00:35:25.534Z,101221.09
2018-10-04T00:36:28.086Z,101226.55
2018-10-04T00:37:30.652Z,101232.74
2018-10-04T00:38:33.230Z,101228.38
2018-10-04T00:39:35.798Z,101223.05
2018-10-04T00:40:38.382Z,101227.52
2018-10-04T00:41:40.961Z,101224.02
2018-10-04T00:42:43.622Z,101224.85
2018-10-04T00:43:46.201Z,101221.83
2018-10-04T00:44:48.757Z,101222.79
2018-10-04T00:45:51.366Z,101217.83
2018-10-04T00:46:53.978Z,101227.66
2018-10-04T00:47:56.533Z,101228.02
2018-10-04T00:48:59.086Z,101222.33
2018-10-04T00:50:01.662Z,101226.32
2018-10-04T00:51:04.266Z,101225.96
2018-10-04T00:52:06.842Z,101226.32
2018-10-04T00:53:09.398Z,101226.32
2018-10-04T00:54:11.959Z,101221.96
2018-10-04T00:55:14.506Z,101225.96
2018-10-04T00:56:17.069Z,101222.42
2018-10-04T00:57:19.634Z,101225.59
2018-10-04T00:58:22.221Z,101224.27
2018-10-04T00:59:24.778Z,101227.39
2018-10-04T01:00:27.372Z,101230.06
2018-10-04T01:01:29.926Z,101231.03
2018-10-04T01:02:32.497Z,101231.89
2018-10-04T01:03:35.091Z,101232.86
2018-10-04T01:04:37.694Z,101232.36
2018-10-04T01:05:40.270Z,101232.86
2018-10-04T01:06:43.041Z,101232.86
2018-10-04T01:07:45.626Z,101238.66
2018-10-04T01:08:48.190Z,101240.49
2018-10-04T01:09:50.762Z,101239.16
2018-10-04T01:10:53.325Z,101238.80
2018-10-04T01:11:55.911Z,101243.16
2018-10-04T01:12:58.470Z,101237.93
2018-10-04T01:14:01.046Z,101241.09
2018-10-04T01:15:03.685Z,101239.77
2018-10-04T01:16:06.390Z,101249.09
2018-10-04T01:17:08.931Z,101247.76
2018-10-04T01:18:22.818Z,101248.72
2018-10-04T01:19:25.526Z,101244.73
2018-10-04T01:20:28.122Z,101247.39
2018-10-04T01:21:30.754Z,101243.86
2018-10-04T01:22:33.326Z,101240.00
2018-10-04T01:23:35.895Z,101244.83
2018-10-04T01:24:38.470Z,101232.48
2018-10-04T01:25:41.062Z,101239.64
2018-10-04T01:26:43.646Z,101241.34
2018-10-04T01:27:46.234Z,101244.97
2018-10-04T01:28:49.449Z,101250.30
2018-10-04T01:29:52.018Z,101249.80
2018-10-04T01:30:54.610Z,101251.63
2018-10-04T01:31:57.158Z,101250.30
2018-10-04T01:33:00.087Z,101251.27
2018-10-04T01:34:02.669Z,101255.62
2018-10-04T01:35:05.243Z,101256.59
2018-10-04T01:36:07.814Z,101255.27
2018-10-04T01:37:10.402Z,101252.70
2018-10-04T01:38:13.034Z,101256.59
2018-10-04T01:39:15.622Z,101259.26
2018-10-04T01:40:18.186Z,101257.56
2018-10-04T01:41:20.756Z,101251.87
2018-10-04T01:42:23.341Z,101256.70
2018-10-04T01:43:25.913Z,101252.34
2018-10-04T01:44:28.478Z,101254.53
2018-10-04T01:45:31.041Z,101253.20
2018-10-04T01:46:33.616Z,101250.91
2018-10-04T01:47:36.239Z,101257.20
2018-10-04T01:48:38.797Z,101256.33
2018-10-04T01:49:41.359Z,101251.87
2018-10-04T01:50:43.910Z,101256.23
2018-10-04T01:51:46.454Z,101252.34
2018-10-04T01:52:49.171Z,101254.17
2018-10-04T01:53:51.838Z,101261.20
2018-10-04T01:54:54.440Z,101265.30
2018-10-04T01:55:56.994Z,101262.16
2018-10-04T01:56:59.583Z,101258.63
2018-10-04T01:58:02.143Z,101253.44
2018-10-04T01:59:04.778Z,101259.60
2018-10-04T02:00:07.379Z,101262.62
2018-10-04T02:01:09.944Z,101264.09
2018-10-04T02:02:12.503Z,101264.09
2018-10-04T02:03:15.058Z,101267.73
2018-10-04T02:04:18.018Z,101265.42
2018-10-04T02:05:21.798Z,101262.40
2018-10-04T02:06:24.346Z,101270.76
2018-10-04T02:07:26.938Z,101270.76
2018-10-04T02:08:29.495Z,101272.55
2018-10-04T02:09:32.038Z,101273.89
2018-10-04T02:10:34.654Z,101268.66
2018-10-04T02:11:37.231Z,101275.72
2018-10-04T02:12:39.830Z,101279.72
2018-10-04T02:13:42.390Z,101279.32
2018-10-04T02:14:44.950Z,101282.38
2018-10-04T02:15:47.554Z,101282.84
2018-10-04T02:16:50.247Z,101282.95
2018-10-04T02:17:52.806Z,101278.95
2018-10-04T02:18:55.369Z,101282.84
2018-10-04T02:19:57.954Z,101285.61
2018-10-04T02:21:00.514Z,101275.83
2018-10-04T02:22:03.098Z,101284.28
2018-10-04T02:23:05.726Z,101291.31
2018-10-04T02:24:08.290Z,101284.38
2018-10-04T02:25:10.860Z,101286.95
2018-10-04T02:26:13.414Z,101292.27
2018-10-04T02:27:15.978Z,101291.44
2018-10-04T02:28:18.530Z,101294.11
2018-10-04T02:29:21.093Z,101290.18
2018-10-04T02:30:23.669Z,101289.24
2018-10-04T02:31:26.307Z,101294.58
2018-10-04T02:32:28.886Z,101294.58
2018-10-04T02:33:31.458Z,101297.23
2018-10-04T02:34:34.027Z,101300.84
2018-10-04T02:35:36.578Z,101305.23
2018-10-04T02:36:39.138Z,101302.66
2018-10-04T02:37:42.538Z,101303.50
2018-10-04T02:38:45.086Z,101306.66
2018-10-04T02:39:47.658Z,101301.80
2018-10-04T02:40:50.246Z,101307.89
2018-10-04T02:41:52.797Z,101307.13
2018-10-04T02:42:55.359Z,101304.10
2018-10-04T02:43:57.914Z,101315.63
2018-10-04T02:45:00.517Z,101312.36
2018-10-04T02:46:03.115Z,101313.42
2018-10-04T02:47:06.322Z,101319.12
2018-10-04T02:48:08.907Z,101318.28
2018-10-04T02:49:11.454Z,101318.75
2018-10-04T02:50:14.010Z,101318.75
2018-10-04T02:51:16.670Z,101317.42
2018-10-04T02:52:19.243Z,101319.72
2018-10-04T02:53:21.810Z,101325.05
2018-10-04T02:54:25.808Z,101318.38
2018-10-04T02:55:33.880Z,101322.88
2018-10-04T02:56:42.102Z,101325.05
2018-10-04T02:57:44.652Z,101324.21
2018-10-04T02:58:47.226Z,101327.34
2018-10-04T02:59:49.822Z,101326.02
2018-10-04T03:00:52.397Z,101323.84
2018-10-04T03:01:54.965Z,101324.67
2018-10-04T03:02:57.518Z,101328.67
2018-10-04T03:04:00.098Z,101334.87
2018-10-04T03:05:02.674Z,101328.67
2018-10-04T03:06:05.254Z,101332.07
2018-10-04T03:07:07.902Z,101329.04
2018-10-04T03:08:10.478Z,101333.04
2018-10-04T03:09:13.107Z,101331.70
2018-10-04T03:10:15.710Z,101336.56
2018-10-04T03:11:18.314Z,101336.56
2018-10-04T03:12:20.963Z,101337.03
2018-10-04T03:13:23.546Z,101340.20
2018-10-04T03:14:26.106Z,101341.39
2018-10-04T03:15:28.987Z,101340.56
2018-10-04T03:16:31.551Z,101341.89
2018-10-04T03:17:34.111Z,101344.06
2018-10-04T03:18:36.674Z,101339.23
2018-10-04T03:19:39.246Z,101338.36
2018-10-04T03:20:41.835Z,101339.70
2018-10-04T03:21:44.398Z,101337.53
2018-10-04T03:22:46.954Z,101335.70
2018-10-04T03:23:49.502Z,101342.36
2018-10-04T03:24:52.057Z,101341.03
2018-10-04T03:25:54.629Z,101338.36
2018-10-04T03:26:57.195Z,101337.77
2018-10-04T03:27:59.760Z,101340.20
2018-10-04T03:29:02.454Z,101341.03
2018-10-04T03:30:05.148Z,101340.20
2018-10-04T03:31:07.707Z,101342.00
2018-10-04T03:32:10.274Z,101342.86
2018-10-04T03:33:12.854Z,101342.00
2018-10-04T03:34:15.424Z,101343.33
2018-10-04T03:35:17.986Z,101344.66
2018-10-04T03:36:20.569Z,101336.30
2018-10-04T03:37:23.130Z,101342.13
2018-10-04T03:38:25.686Z,101342.13
2018-10-04T03:39:28.254Z,101339.47
2018-10-04T03:40:30.809Z,101338.13
2018-10-04T03:41:33.655Z,101342.59
2018-10-04T03:42:36.194Z,101343.92
2018-10-04T03:43:38.758Z,101342.23
2018-10-04T03:44:41.300Z,101340.42
2018-10-04T03:45:43.877Z,101343.56
2018-10-04T03:46:46.426Z,101343.09
2018-10-04T03:47:48.990Z,101346.59
2018-10-04T03:48:51.546Z,101340.53
2018-10-04T03:49:54.148Z,101343.56
2018-10-04T03:50:56.718Z,101346.22
2018-10-04T03:51:59.274Z,101341.86
2018-10-04T03:53:01.833Z,101341.50
2018-10-04T03:54:04.494Z,101340.06
2018-10-04T03:55:07.334Z,101341.86
2018-10-04T03:56:09.910Z,101341.86
2018-10-04T03:57:12.496Z,101343.19
2018-10-04T03:58:15.087Z,101333.50
2018-10-04T04:00:28.682Z,101338.00
2018-10-04T04:01:31.266Z,101338.97
2018-10-04T04:02:33.840Z,101337.27
2018-10-04T04:03:36.404Z,101339.42
2018-10-04T04:04:38.966Z,101338.09
2018-10-04T04:05:41.526Z,101338.97
2018-10-04T04:06:44.094Z,101343.79
2018-10-04T04:07:46.667Z,101347.42
2018-10-04T04:08:49.286Z,101342.95
2018-10-04T04:09:51.846Z,101340.77
2018-10-04T04:10:54.414Z,101340.30
2018-10-04T04:11:57.074Z,101339.56
2018-10-04T04:12:59.584Z,101335.30
2018-10-04T04:14:02.170Z,101339.56
2018-10-04T04:15:05.290Z,101339.06
2018-10-04T04:16:07.882Z,101332.41
2018-10-04T04:17:10.449Z,101336.53
2018-10-04T04:18:13.021Z,101337.36
2018-10-04T04:19:15.588Z,101340.99
2018-10-04T04:20:18.201Z,101340.53
2018-10-04T04:21:20.766Z,101343.66
2018-10-04T04:22:23.403Z,101343.66
2018-10-04T04:23:25.934Z,101334.47
2018-10-04T04:24:28.504Z,101333.97
2018-10-04T04:25:31.062Z,101336.62
2018-10-04T04:26:33.665Z,101337.00
2018-10-04T04:27:36.238Z,101336.62
2018-10-04T04:28:38.802Z,101334.33
2018-10-04T04:29:41.470Z,101332.63
2018-10-04T04:30:44.071Z,101335.80
2018-10-04T04:31:46.682Z,101337.97
2018-10-04T04:32:49.267Z,101337.59
2018-10-04T04:33:51.842Z,101334.09
2018-10-04T04:34:54.404Z,101336.27
2018-10-04T04:35:56.962Z,101334.09
2018-10-04T04:36:59.531Z,101330.57
2018-10-04T04:38:02.105Z,101336.77
2018-10-04T04:39:06.433Z,101339.89
2018-10-04T04:40:08.994Z,101339.52
2018-10-04T04:41:11.559Z,101334.56
2018-10-04T04:42:14.213Z,101335.16
2018-10-04T04:43:16.911Z,101333.33
2018-10-04T04:44:19.509Z,101336.36
2018-10-04T04:45:22.067Z,101305.56
2018-10-04T04:46:24.656Z,101331.17
2018-10-04T04:47:27.218Z,101332.87
2018-10-04T04:48:29.778Z,101335.16
2018-10-04T04:49:32.331Z,101328.51
2018-10-04T04:50:34.902Z,101332.87
2018-10-04T04:51:37.478Z,101325.34
2018-10-04T04:52:40.136Z,101326.67
2018-10-04T04:53:43.593Z,101325.34
2018-10-04T04:55:20.095Z,101329.23
2018-10-04T04:56:22.650Z,101326.58
2018-10-04T04:57:25.203Z,101327.54
2018-10-04T04:58:27.774Z,101324.52
2018-10-04T04:59:30.336Z,101321.34
2018-10-04T05:00:34.006Z,101314.92
2018-10-04T05:01:36.581Z,101322.31
2018-10-04T05:02:39.130Z,101329.47
2018-10-04T05:03:41.695Z,101328.60
2018-10-04T05:04:44.258Z,101329.94
2018-10-04T05:05:46.828Z,101336.13
2018-10-04T05:06:49.394Z,101329.10
2018-10-04T05:07:52.862Z,101331.77
2018-10-04T05:08:55.434Z,101330.44
2018-10-04T05:09:57.990Z,101329.10
2018-10-04T05:11:00.554Z,101330.44
2018-10-04T05:12:03.110Z,101335.77
2018-10-04T05:13:06.514Z,101332.13
2018-10-04T05:14:09.144Z,101329.10
2018-10-04T05:15:11.710Z,101327.41
2018-10-04T05:16:14.256Z,101322.45
2018-10-04T05:17:16.832Z,101322.91
2018-10-04T05:18:19.398Z,101324.61
2018-10-04T05:19:21.958Z,101325.47
2018-10-04T05:20:24.526Z,101318.09
2018-10-04T05:21:27.082Z,101316.39
2018-10-04T05:22:29.694Z,101322.08
2018-10-04T05:23:32.224Z,101317.59
2018-10-04T05:24:34.782Z,101316.75
2018-10-04T05:25:37.346Z,101317.59
2018-10-04T05:26:39.927Z,101319.41
2018-10-04T05:27:42.546Z,101320.75
2018-10-04T05:28:45.124Z,101318.91
2018-10-04T05:29:47.695Z,101321.22
2018-10-04T05:30:50.250Z,101323.05
2018-10-04T05:31:52.904Z,101321.22
2018-10-04T05:32:55.454Z,101323.05
2018-10-04T05:33:58.016Z,101318.55
2018-10-04T05:35:00.742Z,101325.70
2018-10-04T05:36:03.302Z,101321.72
2018-10-04T05:37:05.909Z,101320.38
2018-10-04T05:38:08.438Z,101315.52
2018-10-04T05:39:11.010Z,101315.16
2018-10-04T05:40:13.678Z,101314.69
2018-10-04T05:41:16.234Z,101312.86
2018-10-04T05:42:18.850Z,101314.32
2018-10-04T05:43:21.402Z,101314.69
2018-10-04T05:44:23.975Z,101319.52
2018-10-04T05:45:26.583Z,101321.72
2018-10-04T05:46:29.142Z,101317.95
2018-10-04T05:47:31.734Z,101319.15
2018-10-04T05:48:34.304Z,101320.02
2018-10-04T05:49:36.902Z,101314.19
2018-10-04T05:50:39.462Z,101322.17
2018-10-04T05:51:42.042Z,101321.22
2018-10-04T05:52:44.596Z,101322.45
2018-10-04T05:53:47.163Z,101325.84
2018-10-04T05:54:49.744Z,101324.52
2018-10-04T05:55:52.469Z,101323.55
2018-10-04T05:56:55.018Z,101323.91
2018-10-04T05:57:57.575Z,101321.15
2018-10-04T05:59:00.162Z,101322.84
2018-10-04T06:00:13.908Z,101319.22
2018-10-04T06:01:16.482Z,101319.22
2018-10-04T06:02:19.090Z,101317.75
2018-10-04T06:03:21.667Z,101316.42
2018-10-04T06:04:24.814Z,101318.13
2018-10-04T06:05:27.585Z,101317.28
2018-10-04T06:06:30.090Z,101319.45
2018-10-04T06:07:32.642Z,101317.52
2018-10-04T06:08:35.198Z,101311.36
2018-10-04T06:09:37.839Z,101306.03
2018-10-04T06:10:40.406Z,101307.23
2018-10-04T06:11:42.969Z,101308.56
2018-10-04T06:12:45.558Z,101304.56
2018-10-04T06:13:48.122Z,101313.42
2018-10-04T06:14:50.743Z,101311.13
2018-10-04T06:15:53.322Z,101308.93
2018-10-04T06:16:55.882Z,101316.92
2018-10-04T06:17:58.478Z,101314.63
2018-10-04T06:19:01.070Z,101308.93
2018-10-04T06:20:03.719Z,101311.49
2018-10-04T06:21:06.316Z,101313.30
2018-10-04T06:22:08.895Z,101316.45
2018-10-04T06:23:11.468Z,101318.62
2018-10-04T06:24:14.190Z,101315.95
2018-10-04T06:25:16.744Z,101314.98
2018-10-04T06:26:19.298Z,101308.33
2018-10-04T06:27:21.890Z,101315.95
2018-10-04T06:28:24.450Z,101313.30
2018-10-04T06:29:27.014Z,101319.48
2018-10-04T06:30:29.594Z,101313.30
2018-10-04T06:31:32.182Z,101315.95
2018-10-04T06:32:34.756Z,101317.78
2018-10-04T06:33:37.377Z,101318.25
2018-10-04T06:34:39.942Z,101322.25
2018-10-04T06:35:42.538Z,101316.92
2018-10-04T06:36:45.096Z,101320.91
2018-10-04T06:37:47.773Z,101315.95
2018-10-04T06:38:50.338Z,101320.45
2018-10-04T06:39:52.910Z,101319.59
2018-10-04T06:40:55.482Z,101317.42
2018-10-04T06:41:58.067Z,101320.91
2018-10-04T06:43:00.618Z,101318.62
2018-10-04T06:44:03.297Z,101317.42
2018-10-04T06:45:05.923Z,101320.91
2018-10-04T06:46:08.494Z,101315.13
2018-10-04T06:47:11.292Z,101318.25
2018-10-04T06:48:13.858Z,101319.95
2018-10-04T06:49:16.418Z,101310.63
2018-10-04T06:50:19.034Z,101315.48
2018-10-04T06:51:21.550Z,101310.63
2018-10-04T06:52:24.122Z,101308.46
2018-10-04T06:53:26.690Z,101307.50
2018-10-04T06:54:29.246Z,101300.34
2018-10-04T06:55:31.829Z,101314.98
2018-10-04T06:56:34.510Z,101309.30
2018-10-04T06:57:37.068Z,101307.96
2018-10-04T06:58:39.642Z,101303.60
2018-10-04T06:59:42.211Z,101301.30
2018-10-04T07:00:44.806Z,101303.97
2018-10-04T07:01:47.378Z,101301.30
2018-10-04T07:02:49.935Z,101307.59
2018-10-04T07:03:52.519Z,101300.94
2018-10-04T07:04:55.074Z,101309.30
2018-10-04T07:05:57.661Z,101316.92
2018-10-04T07:07:00.242Z,101304.94
2018-10-04T07:08:02.790Z,101310.76
2018-10-04T07:09:07.550Z,101313.89
2018-10-04T07:10:10.180Z,101313.06
2018-10-04T07:11:12.696Z,101312.56
2018-10-04T07:12:15.408Z,101308.56
2018-10-04T07:13:17.982Z,101315.22
2018-10-04T07:14:20.578Z,101317.42
2018-10-04T07:15:23.134Z,101321.05
2018-10-04T07:16:25.910Z,101322.84
2018-10-04T07:17:28.553Z,101314.13
2018-10-04T07:18:31.114Z,101319.72
2018-10-04T07:19:33.662Z,101321.88
2018-10-04T07:20:36.336Z,101316.19
2018-10-04T07:21:38.882Z,101325.88
2018-10-04T07:22:41.454Z,101323.21
2018-10-04T07:23:44.014Z,101323.58
2018-10-04T07:24:46.566Z,101321.88
2018-10-04T07:25:49.126Z,101325.41
2018-10-04T07:26:51.686Z,101324.55
2018-10-04T07:27:54.246Z,101323.21
2018-10-04T07:28:56.834Z,101320.55
2018-10-04T07:29:59.378Z,101319.81
2018-10-04T07:31:01.947Z,101324.55
2018-10-04T07:32:04.533Z,101322.75
2018-10-04T07:33:07.103Z,101326.84
2018-10-04T07:34:09.672Z,101324.08
2018-10-04T07:35:12.230Z,101327.20
2018-10-04T07:36:14.794Z,101323.58
2018-10-04T07:37:17.388Z,101324.55
2018-10-04T07:38:19.954Z,101332.07
2018-10-04T07:39:22.522Z,101329.88
2018-10-04T07:40:25.082Z,101331.57
2018-10-04T07:41:27.644Z,101327.20
2018-10-04T07:42:30.208Z,101334.23
2018-10-04T07:43:32.785Z,101338.23
2018-10-04T07:44:35.342Z,101334.73
2018-10-04T07:45:37.914Z,101331.57
2018-10-04T07:46:40.467Z,101326.48
2018-10-04T07:47:43.022Z,101334.23
2018-10-04T07:48:45.592Z,101335.56
2018-10-04T07:49:48.158Z,101328.08
2018-10-04T07:50:50.729Z,101323.58
2018-10-04T07:51:53.302Z,101331.57
2018-10-04T07:52:55.962Z,101331.57
2018-10-04T07:53:58.532Z,101338.59
2018-10-04T07:55:01.095Z,101338.59
2018-10-04T07:56:03.906Z,101336.44
2018-10-04T07:57:06.482Z,101334.13
2018-10-04T07:58:09.046Z,101337.77
2018-10-04T07:59:11.605Z,101338.50
2018-10-04T08:00:14.199Z,101342.59
2018-10-04T08:01:16.754Z,101345.16
2018-10-04T08:02:19.322Z,101340.66
2018-10-04T08:03:21.882Z,101314.33
2018-10-04T08:04:24.434Z,101337.53
2018-10-04T08:05:26.998Z,101336.66
2018-10-04T08:06:29.736Z,101334.97
2018-10-04T08:07:32.172Z,101332.67
2018-10-04T08:08:34.732Z,101341.89
2018-10-04T08:09:37.290Z,101333.04
2018-10-04T08:10:39.841Z,101333.90
2018-10-04T08:11:42.402Z,101326.73
2018-10-04T08:12:44.965Z,101332.07
2018-10-04T08:13:47.878Z,101329.41
2018-10-04T08:14:50.447Z,101325.41
2018-10-04T08:15:53.026Z,101328.08
2018-10-04T08:16:55.610Z,101329.77
2018-10-04T08:17:58.170Z,101324.94
2018-10-04T08:19:00.778Z,101328.80
2018-10-04T08:20:03.629Z,101330.14
2018-10-04T08:21:06.282Z,101325.78
2018-10-04T08:22:08.878Z,101332.80
2018-10-04T08:23:11.467Z,101330.14
2018-10-04T08:24:14.026Z,101331.00
2018-10-04T08:25:16.566Z,101328.34
2018-10-04T08:26:19.138Z,101326.55
2018-10-04T08:27:21.813Z,101326.91
2018-10-04T08:28:24.390Z,101333.57
2018-10-04T08:29:26.946Z,101325.58
2018-10-04T08:30:29.510Z,101324.25
2018-10-04T08:31:32.092Z,101326.44
2018-10-04T08:32:34.726Z,101323.88
2018-10-04T08:33:37.321Z,101323.41
2018-10-04T08:34:39.966Z,101320.75
2018-10-04T08:35:42.538Z,101320.75
2018-10-04T08:36:45.131Z,101316.75
2018-10-04T08:37:47.723Z,101321.58
2018-10-04T08:38:50.296Z,101319.41
2018-10-04T08:39:52.854Z,101309.59
2018-10-04T08:40:55.417Z,101306.92
2018-10-04T08:41:58.019Z,101314.09
2018-10-04T08:43:00.562Z,101308.63
2018-10-04T08:44:03.162Z,101310.82
2018-10-04T08:45:05.800Z,101309.95
2018-10-04T08:46:08.382Z,101314.35
2018-10-04T08:47:10.945Z,101310.36
2018-10-04T08:48:13.542Z,101310.72
2018-10-04T08:49:16.076Z,101311.55
2018-10-04T08:50:18.640Z,101312.05
2018-10-04T08:51:26.839Z,101312.88
2018-10-04T08:52:35.087Z,101314.58
2018-10-04T08:53:37.650Z,101308.79
2018-10-04T08:54:40.205Z,101316.28
2018-10-04T08:55:42.780Z,101315.45
2018-10-04T08:56:45.342Z,101309.62
2018-10-04T08:57:47.894Z,101303.82
2018-10-04T08:58:50.463Z,101303.22
2018-10-04T08:59:53.014Z,101311.81
2018-10-04T09:00:55.643Z,101313.41
2018-10-04T09:01:58.203Z,101304.57
2018-10-04T09:03:03.054Z,101308.59
2018-10-04T09:04:05.635Z,101306.89
2018-10-04T09:05:08.218Z,101304.34
2018-10-04T09:06:10.767Z,101306.17
2018-10-04T09:07:13.466Z,101302.30
2018-10-04T09:09:26.030Z,101301.84
2018-10-04T09:10:28.627Z,101300.88
2018-10-04T09:11:31.198Z,101301.97
2018-10-04T09:12:33.754Z,101298.19
2018-10-04T09:13:36.307Z,101302.92
2018-10-04T09:14:38.858Z,101302.31
2018-10-04T09:15:41.642Z,101300.52
2018-10-04T09:16:44.197Z,101302.20
2018-10-04T09:17:46.906Z,101300.73
2018-10-04T09:18:49.494Z,101302.94
2018-10-04T09:19:52.095Z,101301.60
2018-10-04T09:20:54.682Z,101302.94
2018-10-04T09:21:57.242Z,101303.77
2018-10-04T09:22:59.809Z,101308.27
2018-10-04T09:24:02.371Z,101304.73
2018-10-04T09:25:04.979Z,101308.27
2018-10-04T09:26:07.625Z,101307.41
2018-10-04T09:27:10.158Z,101306.44
2018-10-04T09:28:13.714Z,101304.27
2018-10-04T09:29:16.267Z,101305.59
2018-10-04T09:30:24.386Z,101301.60
2018-10-04T09:31:34.670Z,101300.27
2018-10-04T09:32:37.250Z,101302.80
2018-10-04T09:33:39.818Z,101303.30
2018-10-04T09:34:42.377Z,101301.60
2018-10-04T09:35:44.930Z,101305.59
2018-10-04T09:36:47.486Z,101309.97
2018-10-04T09:37:50.082Z,101306.94
2018-10-04T09:38:52.642Z,101305.59
2018-10-04T09:39:55.194Z,101298.93
2018-10-04T09:40:57.898Z,101304.27
2018-10-04T09:42:00.487Z,101304.73
2018-10-04T09:43:03.054Z,101304.73
2018-10-04T09:44:05.754Z,101308.27
2018-10-04T09:45:11.064Z,101306.44
2018-10-04T09:46:13.698Z,101305.96
2018-10-04T09:47:21.646Z,101302.94
2018-10-04T09:48:24.243Z,101303.30
2018-10-04T09:49:26.806Z,101308.63
2018-10-04T09:50:34.270Z,101307.30
2018-10-04T09:51:42.330Z,101304.27
2018-10-04T09:52:44.885Z,101301.09
2018-10-04T09:53:58.640Z,101306.06
2018-10-04T09:55:06.674Z,101302.94
2018-10-04T09:56:14.870Z,101300.38
2018-10-04T09:57:23.066Z,101295.55
2018-10-04T09:58:25.642Z,101296.88
2018-10-04T09:59:28.216Z,101298.20
2018-10-04T10:00:36.452Z,101293.34
2018-10-04T10:01:44.423Z,101289.48
2018-10-04T10:02:53.766Z,101284.98
2018-10-04T10:03:56.406Z,101287.17
2018-10-04T10:04:59.030Z,101284.98
2018-10-04T10:06:01.627Z,101279.78
2018-10-04T10:07:04.238Z,101281.95
2018-10-04T10:08:06.853Z,101278.45
2018-10-04T10:09:09.435Z,101276.25
2018-10-04T10:10:12.083Z,101277.12
2018-10-04T10:11:14.662Z,101272.75
2018-10-04T10:12:17.246Z,101274.92
2018-10-04T10:13:19.846Z,101277.12
2018-10-04T10:14:22.506Z,101270.56
2018-10-04T10:15:25.070Z,101276.75
2018-10-04T10:16:27.630Z,101271.42
2018-10-04T10:17:30.170Z,101264.75
2018-10-04T10:18:32.738Z,101264.75
2018-10-04T10:19:35.400Z,101262.55
2018-10-04T10:20:37.954Z,101264.75
2018-10-04T10:21:40.519Z,101264.15
2018-10-04T10:22:43.058Z,101265.59
2018-10-04T10:23:45.650Z,101259.78
2018-10-04T10:24:48.211Z,101265.12
2018-10-04T10:25:50.774Z,101266.92
2018-10-04T10:26:53.362Z,101273.95
2018-10-04T10:27:55.919Z,101263.28
2018-10-04T10:28:58.475Z,101261.95
2018-10-04T10:30:01.055Z,101263.78
2018-10-04T10:31:03.870Z,101264.15
2018-10-04T10:32:06.422Z,101266.81
2018-10-04T10:33:08.974Z,101268.52
2018-10-04T10:34:11.530Z,101266.81
2018-10-04T10:35:14.130Z,101264.15
2018-10-04T10:36:16.682Z,101266.31
2018-10-04T10:37:19.242Z,101268.52
2018-10-04T10:38:21.815Z,101265.84
2018-10-04T10:39:24.394Z,101266.57
2018-10-04T10:40:27.049Z,101259.54
2018-10-04T10:41:29.536Z,101265.09
2018-10-04T10:42:32.090Z,101264.27
2018-10-04T10:43:34.666Z,101268.27
2018-10-04T10:44:37.233Z,101264.63
2018-10-04T10:45:39.794Z,101265.96
2018-10-04T10:46:42.395Z,101261.83
2018-10-04T10:47:44.966Z,101256.98
2018-10-04T10:48:47.530Z,101260.02
2018-10-04T10:49:50.099Z,101249.35
2018-10-04T10:50:52.654Z,101263.05
2018-10-04T10:51:56.657Z,101258.08
2018-10-04T10:52:59.291Z,101256.74
2018-10-04T10:54:01.856Z,101262.94
2018-10-04T10:55:04.492Z,101261.11
2018-10-04T10:56:07.082Z,101258.44
2018-10-04T10:57:09.653Z,101257.11
2018-10-04T10:58:12.206Z,101257.00
2018-10-04T10:59:14.767Z,101256.64
2018-10-04T11:00:17.330Z,101260.50
2018-10-04T11:01:19.883Z,101254.80
2018-10-04T11:02:22.446Z,101258.20
2018-10-04T11:03:25.038Z,101253.83
2018-10-04T11:04:27.655Z,101251.16
2018-10-04T11:05:30.218Z,101256.86
2018-10-04T11:06:32.782Z,101253.36
2018-10-04T11:07:35.406Z,101249.36
2018-10-04T11:08:37.995Z,101251.05
2018-10-04T11:09:40.544Z,101249.22
2018-10-04T11:10:43.106Z,101249.72
2018-10-04T11:11:45.658Z,101245.36
2018-10-04T11:12:48.214Z,101247.89
2018-10-04T11:13:50.757Z,101247.05
2018-10-04T11:14:53.363Z,101247.52
2018-10-04T11:15:55.922Z,101247.52
2018-10-04T11:16:58.540Z,101251.53
2018-10-04T11:18:01.230Z,101250.19
2018-10-04T11:19:03.706Z,101255.06
2018-10-04T11:20:06.278Z,101251.53
2018-10-04T11:21:08.854Z,101252.39
2018-10-04T11:22:11.408Z,101253.22
2018-10-04T11:23:14.009Z,101255.53
2018-10-04T11:24:16.620Z,101250.55
2018-10-04T11:25:19.179Z,101251.89
2018-10-04T11:26:21.763Z,101249.22
2018-10-04T11:27:24.358Z,101249.72
2018-10-04T11:28:26.910Z,101250.55
2018-10-04T11:29:29.479Z,101247.89
2018-10-04T11:30:32.056Z,101249.22
2018-10-04T11:31:34.658Z,101246.19
2018-10-04T11:32:39.510Z,101244.86
2018-10-04T11:33:42.090Z,101245.83
2018-10-04T11:34:44.711Z,101242.70
2018-10-04T11:35:47.309Z,101244.86
2018-10-04T11:36:49.962Z,101241.83
2018-10-04T11:37:52.546Z,101243.16
2018-10-04T11:38:55.171Z,101241.83
2018-10-04T11:39:57.741Z,101239.05
2018-10-04T11:41:00.370Z,101238.19
2018-10-04T11:42:03.018Z,101238.19
2018-10-04T11:43:06.686Z,101243.52
2018-10-04T11:44:13.870Z,101239.52
2018-10-04T11:45:21.639Z,101240.39
2018-10-04T11:46:24.914Z,101239.88
2018-10-04T11:47:32.458Z,101238.55
2018-10-04T11:48:36.890Z,101236.25
2018-10-04T11:49:39.483Z,101241.22
2018-10-04T11:50:42.038Z,101238.08
2018-10-04T11:51:44.665Z,101238.08
2018-10-04T11:52:47.250Z,101240.25
2018-10-04T11:53:49.882Z,101235.88
2018-10-04T11:54:52.576Z,101235.05
2018-10-04T11:55:55.364Z,101237.72
2018-10-04T11:56:57.995Z,101236.75
2018-10-04T11:58:00.634Z,101234.91
2018-10-04T11:59:03.186Z,101234.91
2018-10-04T12:00:05.963Z,101238.08